createdAt,value
2022-10-12T00:00:51.372Z,50.87
2022-10-12T00:03:20.162Z,48.00
2022-10-12T00:05:51.406Z,47.60
2022-10-12T00:08:19.386Z,43.33
2022-10-12T00:10:47.546Z,44.87
2022-10-12T00:13:15.620Z,44.73
2022-10-12T00:15:43.589Z,46.43
2022-10-12T00:18:12.954Z,43.73
2022-10-12T00:20:42.079Z,39.07
2022-10-12T00:23:11.040Z,32.53
2022-10-12T00:25:39.731Z,36.53
2022-10-12T00:28:08.006Z,40.03
2022-10-12T00:30:36.673Z,46.13
2022-10-12T00:33:04.896Z,35.23
2022-10-12T00:35:34.344Z,36.03
2022-10-12T00:38:02.372Z,37.77
2022-10-12T00:40:30.423Z,40.20
2022-10-12T00:42:59.845Z,33.37
2022-10-12T00:45:28.605Z,35.00
2022-10-12T00:48:01.190Z,28.37
2022-10-12T00:50:32.359Z,31.77
2022-10-12T00:53:05.475Z,31.00
2022-10-12T00:55:39.023Z,32.77
2022-10-12T00:58:10.192Z,31.43
2022-10-12T01:00:41.978Z,29.17
2022-10-12T01:03:12.549Z,25.57
2022-10-12T01:05:41.643Z,27.97
2022-10-12T01:08:11.240Z,30.70
2022-10-12T01:10:39.274Z,27.20
2022-10-12T01:13:08.023Z,26.70
2022-10-12T01:15:40.830Z,24.47
2022-10-12T01:18:17.245Z,28.17
2022-10-12T01:21:03.186Z,24.67
2022-10-12T01:23:57.691Z,27.90
2022-10-12T01:26:49.746Z,25.63
2022-10-12T01:29:41.308Z,27.63
2022-10-12T01:32:19.100Z,32.00
2022-10-12T01:34:54.218Z,26.73
2022-10-12T01:37:29.701Z,27.80
2022-10-12T01:40:01.667Z,25.13
2022-10-12T01:42:33.205Z,29.40
2022-10-12T01:45:05.795Z,32.07
2022-10-12T01:47:36.821Z,27.23
2022-10-12T01:50:08.052Z,26.53
2022-10-12T01:52:43.587Z,26.63
2022-10-12T01:55:30.495Z,33.17
2022-10-12T01:58:19.388Z,22.87
2022-10-12T02:00:57.268Z,27.80
2022-10-12T02:03:36.105Z,25.60
2022-10-12T02:06:10.263Z,22.93
2022-10-12T02:08:47.321Z,20.73
2022-10-12T02:11:20.323Z,23.47
2022-10-12T02:13:52.701Z,24.27
2022-10-12T02:16:25.230Z,25.83
2022-10-12T02:18:57.114Z,20.53
2022-10-12T02:21:28.847Z,21.20
2022-10-12T02:24:00.376Z,17.80
2022-10-12T02:26:29.615Z,22.23
2022-10-12T02:29:00.824Z,18.87
2022-10-12T02:31:36.776Z,20.87
2022-10-12T02:34:12.514Z,19.07
2022-10-12T02:36:45.748Z,28.10
2022-10-12T02:39:18.031Z,21.17
2022-10-12T02:41:51.074Z,17.57
2022-10-12T02:44:24.504Z,14.93
2022-10-12T02:46:55.768Z,21.53
2022-10-12T02:49:28.642Z,16.30
2022-10-12T02:51:58.724Z,12.73
2022-10-12T02:54:26.835Z,16.27
2022-10-12T02:56:54.828Z,22.40
2022-10-12T02:59:22.831Z,16.53
2022-10-12T03:01:51.001Z,14.40
2022-10-12T03:04:19.039Z,13.53
2022-10-12T03:06:48.433Z,15.67
2022-10-12T03:09:16.454Z,15.57
2022-10-12T03:11:44.857Z,14.73
2022-10-12T03:14:13.372Z,11.83
2022-10-12T03:16:41.438Z,13.50
2022-10-12T03:19:10.370Z,11.00
2022-10-12T03:21:39.739Z,11.57
2022-10-12T03:24:09.210Z,11.53
2022-10-12T03:26:37.450Z,10.27
2022-10-12T03:29:05.713Z,9.90
2022-10-12T03:31:33.708Z,8.67
2022-10-12T03:34:02.270Z,11.33
2022-10-12T03:36:30.688Z,10.63
2022-10-12T03:38:58.663Z,10.30
2022-10-12T03:41:46.887Z,9.63
2022-10-12T03:44:14.878Z,10.30
2022-10-12T03:46:43.200Z,14.37
2022-10-12T03:49:12.861Z,9.23
2022-10-12T03:51:40.830Z,11.27
2022-10-12T03:54:08.875Z,12.07
2022-10-12T03:56:37.215Z,8.93
2022-10-12T03:59:06.937Z,8.83
2022-10-12T04:01:35.085Z,11.97
2022-10-12T04:04:04.108Z,12.00
2022-10-12T04:06:32.051Z,10.40
2022-10-12T04:09:00.155Z,12.33
2022-10-12T04:11:28.660Z,11.27
2022-10-12T04:13:56.690Z,9.50
2022-10-12T04:16:28.802Z,12.07
2022-10-12T04:18:59.307Z,8.80
2022-10-12T04:21:27.588Z,15.27
2022-10-12T04:23:55.562Z,14.10
2022-10-12T04:26:23.590Z,16.40
2022-10-12T04:28:51.816Z,12.70
2022-10-12T04:31:20.048Z,12.77
2022-10-12T04:33:49.481Z,12.77
2022-10-12T04:36:17.444Z,14.57
2022-10-12T04:38:45.619Z,11.77
2022-10-12T04:41:13.630Z,14.23
2022-10-12T04:43:41.649Z,14.33
2022-10-12T04:46:09.628Z,13.50
2022-10-12T04:48:37.690Z,17.97
2022-10-12T04:51:07.355Z,12.53
2022-10-12T04:53:35.375Z,13.40
2022-10-12T04:56:04.698Z,11.83
2022-10-12T04:58:33.542Z,16.17
2022-10-12T05:01:01.529Z,19.40
2022-10-12T05:03:29.605Z,18.87
2022-10-12T05:05:57.593Z,20.70
2022-10-12T05:08:28.925Z,20.87
2022-10-12T05:10:59.717Z,27.10
2022-10-12T05:13:29.364Z,21.27
2022-10-12T05:15:57.458Z,17.70
2022-10-12T05:18:25.679Z,20.60
2022-10-12T05:20:56.986Z,19.67
2022-10-12T05:23:25.504Z,18.67
2022-10-12T05:25:55.796Z,19.47
2022-10-12T05:28:24.113Z,23.23
2022-10-12T05:30:52.617Z,16.90
2022-10-12T05:33:21.048Z,24.70
2022-10-12T05:35:56.258Z,22.53
2022-10-12T05:38:24.904Z,20.77
2022-10-12T05:40:59.170Z,20.03
2022-10-12T05:43:28.403Z,24.50
2022-10-12T05:45:56.542Z,26.27
2022-10-12T05:48:25.466Z,35.27
2022-10-12T05:50:54.594Z,30.07
2022-10-12T05:53:22.993Z,23.40
2022-10-12T05:55:56.893Z,31.23
2022-10-12T05:58:25.864Z,32.03
2022-10-12T06:00:54.369Z,23.23
2022-10-12T06:03:25.931Z,30.43
2022-10-12T06:05:54.345Z,31.38
2022-10-12T06:08:22.461Z,25.80
2022-10-12T06:10:52.812Z,27.73
2022-10-12T06:13:22.299Z,26.10
2022-10-12T06:15:51.434Z,24.13
2022-10-12T06:18:20.674Z,28.47
2022-10-12T06:20:49.570Z,23.87
2022-10-12T06:23:17.677Z,24.90
2022-10-12T06:25:47.730Z,26.67
2022-10-12T06:28:16.068Z,19.38
2022-10-12T06:30:45.815Z,23.37
2022-10-12T06:33:13.999Z,27.00
2022-10-12T06:35:42.001Z,24.02
2022-10-12T06:38:10.006Z,17.90
2022-10-12T06:40:37.983Z,23.45
2022-10-12T06:43:05.997Z,26.25
2022-10-12T06:45:34.583Z,21.23
2022-10-12T06:48:04.906Z,23.33
2022-10-12T06:50:33.215Z,19.88
2022-10-12T06:53:02.051Z,14.73
2022-10-12T06:55:30.672Z,11.20
2022-10-12T06:57:59.066Z,18.17
2022-10-12T07:00:27.505Z,21.85
2022-10-12T07:02:55.503Z,31.40
2022-10-12T07:05:25.295Z,21.95
2022-10-12T07:07:53.301Z,19.73
2022-10-12T07:10:21.397Z,17.27
2022-10-12T07:12:49.684Z,17.10
2022-10-12T07:15:17.815Z,24.00
2022-10-12T07:17:45.914Z,29.55
2022-10-12T07:20:14.400Z,23.77
2022-10-12T07:22:44.839Z,11.52
2022-10-12T07:25:12.867Z,10.77
2022-10-12T07:27:41.319Z,11.32
2022-10-12T07:30:11.542Z,11.38
2022-10-12T07:32:39.613Z,12.32
2022-10-12T07:35:08.231Z,20.92
2022-10-12T07:37:36.705Z,7.00
2022-10-12T07:40:07.607Z,10.85
2022-10-12T07:42:35.620Z,17.85
2022-10-12T07:45:03.835Z,10.75
2022-10-12T07:47:31.938Z,6.40
2022-10-12T07:50:00.523Z,7.72
2022-10-12T07:52:28.624Z,16.65
2022-10-12T07:54:56.732Z,13.52
2022-10-12T07:57:26.746Z,17.27
2022-10-12T07:59:55.799Z,14.38
2022-10-12T08:02:24.085Z,7.97
2022-10-12T08:04:52.804Z,8.77
2022-10-12T08:07:20.974Z,7.70
2022-10-12T08:09:49.554Z,9.60
2022-10-12T08:12:17.691Z,20.77
2022-10-12T08:14:47.856Z,18.60
2022-10-12T08:17:16.015Z,10.60
2022-10-12T08:19:44.058Z,6.80
2022-10-12T08:22:12.900Z,9.43
2022-10-12T08:24:40.897Z,7.97
2022-10-12T08:27:09.082Z,6.28
2022-10-12T08:29:37.711Z,10.60
2022-10-12T08:32:07.403Z,7.93
2022-10-12T08:34:36.012Z,17.17
2022-10-12T08:37:04.291Z,10.98
2022-10-12T08:39:32.286Z,6.55
2022-10-12T08:42:15.689Z,12.52
2022-10-12T08:45:06.020Z,9.43
2022-10-12T08:47:42.511Z,30.25
2022-10-12T08:50:19.388Z,19.17
2022-10-12T08:52:55.551Z,14.05
2022-10-12T08:55:32.391Z,10.75
2022-10-12T08:58:00.416Z,29.80
2022-10-12T09:00:30.997Z,10.30
2022-10-12T09:03:14.957Z,8.88
2022-10-12T09:05:50.345Z,10.65
2022-10-12T09:08:29.807Z,8.32
2022-10-12T09:11:07.803Z,8.95
2022-10-12T09:13:48.277Z,8.45
2022-10-12T09:16:22.534Z,7.03
2022-10-12T09:18:57.942Z,6.45
2022-10-12T09:21:30.002Z,7.50
2022-10-12T09:23:58.788Z,6.93
2022-10-12T09:26:36.566Z,14.70
2022-10-12T09:29:16.310Z,5.97
2022-10-12T09:32:04.486Z,6.72
2022-10-12T09:34:33.970Z,6.80
2022-10-12T09:37:04.185Z,12.32
2022-10-12T09:39:34.172Z,10.93
2022-10-12T09:42:02.506Z,9.32
2022-10-12T09:44:35.136Z,8.77
2022-10-12T09:47:06.219Z,9.68
2022-10-12T09:49:46.894Z,8.30
2022-10-12T09:52:16.934Z,8.10
2022-10-12T09:54:50.272Z,8.57
2022-10-12T09:57:22.573Z,8.68
2022-10-12T09:59:51.413Z,10.20
2022-10-12T10:02:20.936Z,10.85
2022-10-12T10:04:51.905Z,7.93
2022-10-12T10:07:28.239Z,11.70
2022-10-12T10:10:16.091Z,16.17
2022-10-12T10:12:53.143Z,9.02
2022-10-12T10:15:24.875Z,8.85
2022-10-12T10:17:54.901Z,9.32
2022-10-12T10:20:29.792Z,7.90
2022-10-12T10:22:59.490Z,13.10
2022-10-12T10:25:27.611Z,8.55
2022-10-12T10:28:12.314Z,10.85
2022-10-12T10:30:41.464Z,11.95
2022-10-12T10:33:17.167Z,8.50
2022-10-12T10:36:00.687Z,7.68
2022-10-12T10:38:29.661Z,7.25
2022-10-12T10:40:59.163Z,10.30
2022-10-12T10:43:30.245Z,5.13
2022-10-12T10:46:01.507Z,13.90
2022-10-12T10:48:31.996Z,11.10
2022-10-12T10:51:03.567Z,9.85
2022-10-12T10:53:35.243Z,9.77
2022-10-12T10:56:10.133Z,11.77
2022-10-12T10:58:44.132Z,7.30
2022-10-12T11:01:19.576Z,6.10
2022-10-12T11:03:56.519Z,10.27
2022-10-12T11:06:37.196Z,6.72
2022-10-12T11:09:09.148Z,9.55
2022-10-12T11:11:40.494Z,10.77
2022-10-12T11:14:16.075Z,10.00
2022-10-12T11:16:49.948Z,8.85
2022-10-12T11:19:31.606Z,7.32
2022-10-12T11:22:05.983Z,8.35
2022-10-12T11:24:41.909Z,10.02
2022-10-12T11:27:16.517Z,7.80
2022-10-12T11:29:54.148Z,9.60
2022-10-12T11:32:39.026Z,10.50
2022-10-12T11:35:12.831Z,7.57
2022-10-12T11:37:49.508Z,10.13
2022-10-12T11:40:31.106Z,8.40
2022-10-12T11:43:14.425Z,10.13
2022-10-12T11:45:47.277Z,9.23
2022-10-12T11:48:21.678Z,11.85
2022-10-12T11:50:53.470Z,8.70
2022-10-12T11:53:32.216Z,8.88
2022-10-12T11:56:09.463Z,8.50
2022-10-12T11:59:00.907Z,6.82
2022-10-12T12:02:04.780Z,8.00
2022-10-12T12:04:43.872Z,8.02
2022-10-12T12:07:41.939Z,7.80
2022-10-12T12:10:47.272Z,7.60
2022-10-12T12:13:23.589Z,11.07
2022-10-12T12:16:34.319Z,9.75
2022-10-12T12:19:43.565Z,10.20
2022-10-12T12:22:24.914Z,14.55
2022-10-12T12:24:56.887Z,10.93
2022-10-12T12:27:31.652Z,7.82
2022-10-12T12:30:03.218Z,12.43
2022-10-12T12:32:44.774Z,9.20
2022-10-12T12:35:22.846Z,4.85
2022-10-12T12:38:01.375Z,9.55
2022-10-12T12:40:29.566Z,10.32
2022-10-12T12:43:37.856Z,6.60
2022-10-12T12:46:10.621Z,7.20
2022-10-12T12:49:05.685Z,9.27
2022-10-12T12:51:43.655Z,8.85
2022-10-12T12:54:22.100Z,7.85
2022-10-12T12:57:19.427Z,6.95
2022-10-12T13:00:13.719Z,9.50
2022-10-12T13:03:26.190Z,6.05
2022-10-12T13:06:46.494Z,7.25
2022-10-12T13:09:37.594Z,6.05
2022-10-12T13:12:28.786Z,10.70
2022-10-12T13:15:20.593Z,12.73
2022-10-12T13:18:14.529Z,7.43
2022-10-12T13:20:53.317Z,10.27
2022-10-12T13:23:25.846Z,11.30
2022-10-12T13:25:57.784Z,11.70
2022-10-12T13:28:29.142Z,10.48
2022-10-12T13:31:02.874Z,12.65
2022-10-12T13:33:36.217Z,12.73
2022-10-12T13:36:08.952Z,8.77
2022-10-12T13:38:38.613Z,9.90
2022-10-12T13:41:12.435Z,8.85
2022-10-12T13:43:46.842Z,8.25
2022-10-12T13:46:33.716Z,10.63
2022-10-12T13:49:01.858Z,16.38
2022-10-12T13:51:32.402Z,11.35
2022-10-12T13:54:00.605Z,8.75
2022-10-12T13:56:31.155Z,9.02
2022-10-12T13:59:04.308Z,10.65
2022-10-12T14:01:35.780Z,5.32
2022-10-12T14:04:05.653Z,7.43
2022-10-12T14:06:39.201Z,10.73
2022-10-12T14:09:10.837Z,6.65
2022-10-12T14:11:40.189Z,14.50
2022-10-12T14:14:18.582Z,9.02
2022-10-12T14:16:46.788Z,12.65
2022-10-12T14:19:23.112Z,9.90
2022-10-12T14:21:54.571Z,9.65
2022-10-12T14:24:22.589Z,9.27
2022-10-12T14:26:56.266Z,8.73
2022-10-12T14:29:33.675Z,9.68
2022-10-12T14:32:03.419Z,12.15
2022-10-12T14:34:47.242Z,12.18
2022-10-12T14:37:27.540Z,15.90
2022-10-12T14:40:01.011Z,11.40
2022-10-12T14:42:34.323Z,17.98
2022-10-12T14:45:03.578Z,8.15
2022-10-12T14:47:34.579Z,10.80
2022-10-12T14:50:07.831Z,10.15
2022-10-12T14:52:43.615Z,14.60
2022-10-12T14:55:17.705Z,16.17
2022-10-12T14:57:45.991Z,8.27
2022-10-12T15:00:16.286Z,7.10
2022-10-12T15:02:44.787Z,13.50
2022-10-12T15:05:14.245Z,10.88
2022-10-12T15:07:43.727Z,18.38
2022-10-12T15:10:11.965Z,11.82
2022-10-12T15:12:39.986Z,16.13
2022-10-12T15:15:28.823Z,16.08
2022-10-12T15:17:57.352Z,26.05
2022-10-12T15:20:25.861Z,19.27
2022-10-12T15:22:56.201Z,21.13
2022-10-12T15:25:27.681Z,16.35
2022-10-12T15:27:55.647Z,16.70
2022-10-12T15:30:23.606Z,26.13
2022-10-12T15:32:51.641Z,25.50
2022-10-12T15:35:21.910Z,20.05
2022-10-12T15:37:50.314Z,17.13
2022-10-12T15:40:21.919Z,15.77
2022-10-12T15:42:50.300Z,17.45
2022-10-12T15:45:21.674Z,19.02
2022-10-12T15:47:51.152Z,20.13
2022-10-12T15:50:21.520Z,19.35
2022-10-12T15:52:49.840Z,20.67
2022-10-12T15:55:22.835Z,19.52
2022-10-12T15:57:51.661Z,21.10
2022-10-12T16:00:22.304Z,26.23
2022-10-12T16:02:50.695Z,22.65
2022-10-12T16:05:24.937Z,24.15
2022-10-12T16:07:54.775Z,23.65
2022-10-12T16:10:28.100Z,21.80
2022-10-12T16:12:56.553Z,23.52
2022-10-12T16:15:26.796Z,22.38
2022-10-12T16:17:54.781Z,26.90
2022-10-12T16:20:23.793Z,23.67
2022-10-12T16:22:52.628Z,25.20
2022-10-12T16:25:24.134Z,29.20
2022-10-12T16:27:52.822Z,27.83
2022-10-12T16:30:21.406Z,24.95
2022-10-12T16:32:49.784Z,25.63
2022-10-12T16:35:19.110Z,32.00
2022-10-12T16:37:47.133Z,25.52
2022-10-12T16:40:16.147Z,33.00
2022-10-12T16:42:45.779Z,37.85
2022-10-12T16:45:13.831Z,35.63
2022-10-12T16:47:43.185Z,33.88
2022-10-12T16:50:11.606Z,28.60
2022-10-12T16:52:42.537Z,43.42
2022-10-12T16:55:12.765Z,34.25
2022-10-12T16:57:41.621Z,32.78
2022-10-12T17:00:16.423Z,41.30
2022-10-12T17:02:46.182Z,30.08
2022-10-12T17:05:14.280Z,32.63
2022-10-12T17:07:42.500Z,32.80
2022-10-12T17:10:11.001Z,32.33
2022-10-12T17:12:39.489Z,33.05
2022-10-12T17:15:08.401Z,36.47
2022-10-12T17:17:38.016Z,39.03
2022-10-12T17:20:06.852Z,29.38
2022-10-12T17:22:35.120Z,28.75
2022-10-12T17:25:03.178Z,26.27
2022-10-12T17:27:32.466Z,28.73
2022-10-12T17:30:00.634Z,29.70
2022-10-12T17:32:28.667Z,25.45
2022-10-12T17:34:58.073Z,26.55
2022-10-12T17:37:26.157Z,27.95
2022-10-12T17:39:54.463Z,24.67
2022-10-12T17:42:23.167Z,31.75
2022-10-12T17:44:52.080Z,25.33
2022-10-12T17:47:20.493Z,24.65
2022-10-12T17:49:48.842Z,22.80
2022-10-12T17:52:18.632Z,20.70
2022-10-12T17:54:46.978Z,24.98
2022-10-12T17:57:16.293Z,22.77
2022-10-12T17:59:44.860Z,23.48
2022-10-12T18:02:12.925Z,28.55
2022-10-12T18:04:40.963Z,20.08
2022-10-12T18:07:09.073Z,20.90
2022-10-12T18:09:38.982Z,19.92
2022-10-12T18:12:07.497Z,18.67
2022-10-12T18:14:35.509Z,18.40
2022-10-12T18:17:04.016Z,19.17
2022-10-12T18:19:32.590Z,16.85
2022-10-12T18:22:00.657Z,14.33
2022-10-12T18:24:29.413Z,14.05
2022-10-12T18:26:58.957Z,12.90
2022-10-12T18:29:27.806Z,14.27
2022-10-12T18:31:56.401Z,11.37
2022-10-12T18:34:24.576Z,11.53
2022-10-12T18:36:53.341Z,11.07
2022-10-12T18:39:21.565Z,16.80
2022-10-12T18:41:52.798Z,13.30
2022-10-12T18:44:24.499Z,11.60
2022-10-12T18:46:52.725Z,9.23
2022-10-12T18:49:21.172Z,9.07
2022-10-12T18:51:52.047Z,10.23
2022-10-12T18:54:20.431Z,9.60
2022-10-12T18:56:48.621Z,7.23
2022-10-12T18:59:18.133Z,9.40
2022-10-12T19:01:48.252Z,7.57
2022-10-12T19:04:16.723Z,6.13
2022-10-12T19:06:46.683Z,6.37
2022-10-12T19:09:15.889Z,8.23
2022-10-12T19:11:44.515Z,4.97
2022-10-12T19:14:15.061Z,10.00
2022-10-12T19:16:43.942Z,5.60
2022-10-12T19:19:20.436Z,9.30
2022-10-12T19:21:50.256Z,8.07
2022-10-12T19:24:21.174Z,9.27
2022-10-12T19:26:50.094Z,12.13
2022-10-12T19:29:18.226Z,10.63
2022-10-12T19:31:51.001Z,9.13
2022-10-12T19:34:23.689Z,6.20
2022-10-12T19:36:52.274Z,8.67
2022-10-12T19:39:22.989Z,8.97
2022-10-12T19:41:52.510Z,11.10
2022-10-12T19:44:22.253Z,8.47
2022-10-12T19:46:52.589Z,7.63
2022-10-12T19:49:22.003Z,9.53
2022-10-12T19:51:50.369Z,5.00
2022-10-12T19:54:19.756Z,7.83
2022-10-12T19:56:47.745Z,8.97
2022-10-12T19:59:15.775Z,6.37
2022-10-12T20:01:47.944Z,6.93
2022-10-12T20:04:16.209Z,8.50
2022-10-12T20:06:45.694Z,5.90
2022-10-12T20:09:13.871Z,5.17
2022-10-12T20:11:42.170Z,5.43
2022-10-12T20:14:11.484Z,5.17
2022-10-12T20:16:39.865Z,5.23
2022-10-12T20:19:08.145Z,6.23
2022-10-12T20:21:37.435Z,3.70
2022-10-12T20:24:10.252Z,4.70
2022-10-12T20:26:39.447Z,5.43
2022-10-12T20:29:07.792Z,7.97
2022-10-12T20:31:35.777Z,6.93
2022-10-12T20:34:03.843Z,7.40
2022-10-12T20:36:33.009Z,6.07
2022-10-12T20:39:01.647Z,6.50
2022-10-12T20:41:31.229Z,9.80
2022-10-12T20:44:01.062Z,5.43
2022-10-12T20:46:30.666Z,5.03
2022-10-12T20:49:00.596Z,6.40
2022-10-12T20:51:30.654Z,5.60
2022-10-12T20:54:01.153Z,4.83
2022-10-12T20:56:31.537Z,7.53
2022-10-12T20:59:01.280Z,4.77
2022-10-12T21:01:29.426Z,4.97
2022-10-12T21:03:58.104Z,6.27
2022-10-12T21:06:26.935Z,4.63
2022-10-12T21:08:57.040Z,6.27
2022-10-12T21:11:25.995Z,5.50
2022-10-12T21:13:58.135Z,5.63
2022-10-12T21:16:27.184Z,7.53
2022-10-12T21:18:57.507Z,8.87
2022-10-12T21:21:25.533Z,10.57
2022-10-12T21:23:55.837Z,8.20
2022-10-12T21:26:25.358Z,8.60
2022-10-12T21:28:53.904Z,10.63
2022-10-12T21:31:28.207Z,10.83
2022-10-12T21:34:00.005Z,10.97
2022-10-12T21:36:28.616Z,11.03
2022-10-12T21:38:57.225Z,11.77
2022-10-12T21:41:27.609Z,11.50
2022-10-12T21:43:56.298Z,12.37
2022-10-12T21:46:28.548Z,9.53
2022-10-12T21:48:57.478Z,9.73
2022-10-12T21:51:26.447Z,12.47
2022-10-12T21:53:55.179Z,14.90
2022-10-12T21:56:24.975Z,13.23
2022-10-12T21:58:54.401Z,14.63
2022-10-12T22:01:24.891Z,9.83
2022-10-12T22:03:56.174Z,9.77
2022-10-12T22:06:26.438Z,11.63
2022-10-12T22:08:56.453Z,9.93
2022-10-12T22:11:27.285Z,15.50
2022-10-12T22:13:59.356Z,10.87
2022-10-12T22:16:28.143Z,10.87
2022-10-12T22:18:59.622Z,9.40
2022-10-12T22:21:28.083Z,8.67
2022-10-12T22:23:56.150Z,10.87
2022-10-12T22:26:25.343Z,12.40
2022-10-12T22:28:53.436Z,9.87
2022-10-12T22:31:22.339Z,9.57
2022-10-12T22:33:50.487Z,16.37
2022-10-12T22:36:20.302Z,12.53
2022-10-12T22:38:48.444Z,14.33
2022-10-12T22:41:18.293Z,12.63
2022-10-12T22:43:46.307Z,12.73
2022-10-12T22:46:14.498Z,17.60
2022-10-12T22:48:42.477Z,15.27
2022-10-12T22:51:10.660Z,18.43
2022-10-12T22:53:40.571Z,15.83
2022-10-12T22:56:15.636Z,19.27
2022-10-12T22:58:43.931Z,17.27
2022-10-12T23:01:14.123Z,20.73
2022-10-12T23:03:42.924Z,16.13
2022-10-12T23:06:12.315Z,17.47
2022-10-12T23:08:42.013Z,16.70
2022-10-12T23:11:12.294Z,13.33
2022-10-12T23:13:42.276Z,18.27
2022-10-12T23:16:12.458Z,15.80
2022-10-12T23:18:41.038Z,18.47
2022-10-12T23:21:10.916Z,17.03
2022-10-12T23:23:42.489Z,21.33
2022-10-12T23:26:13.019Z,14.97
2022-10-12T23:28:41.173Z,15.80
2022-10-12T23:31:10.542Z,20.53
2022-10-12T23:33:38.566Z,15.07
2022-10-12T23:36:08.937Z,22.93
2022-10-12T23:38:38.979Z,15.53
2022-10-12T23:41:08.701Z,15.57
2022-10-12T23:43:38.033Z,13.87
2022-10-12T23:46:06.906Z,16.53
2022-10-12T23:48:36.061Z,14.67
2022-10-12T23:51:07.377Z,14.57
2022-10-12T23:53:35.431Z,17.83
2022-10-12T23:56:03.423Z,13.20
2022-10-12T23:58:32.849Z,17.93
